РУС

ENG

 
  Pireps - S7
 

Рейс SBI6015

  • Выполнял: Dmitry Schcurov
  • Аэропорт отправления: Pulkovo Airport (ULLI)
  • Аэропорт назначения: Voronezh (UUOO)
  • Тип ВС: E170 (VQ-BYA)
  • Время полёта: 02.22
  • Дата полёта: 29.07.2020
  • Маршрут: SUGIN R904 KANET T576 NAMIN NAM5T FV R11 TS
  • Статус: Одобрен

Детали полёта
Gross Revenue:
(68 load / $ 125.00 per unit
$ 8, 500.00
Fuel Cost:
(2945 fuel used @ 5.1 / unit)
$ 15, 019.50


Дополнительная информация о полёте:

Лог

Aircraft Used in flight is Embraer 170 Air Canada
20:13 Boarding
20:13 Brakes are On
20:15 Navigation Lights ON at 90 AGL
20:40 Beacon Lights ON at 90 AGL
20:44 Brakes are Released
20:44 Pushing back
20:45 Engine 1 Started
20:46 Brakes are On
20:46 Boarding
20:46 Engine 2 Started
20:46Flaps 1 Selected at 90ft and 0kts
20:48 Taxi Lights ON at 90 AGL
20:48 Brakes are Released
20:54 Taxi Lights OFF at 90 AGL
20:54 Landing Lights ON at 90 AGL
20:54 Strobe Lights ON at 90 AGL
20:55 You Took off @ 158 Knots and Flaps at Position 1
Departure Weather
ULLI 291730Z 27005MPS 230V290 9999 SCT030 17/12 Q1005 R28L/190055 NOSIG
20:55 Landing Gear Up @ 171 Knots and 230 Feet
20:57Flaps Retracted at 4890ft and 211kts
20:57 Landing Lights OFF at 7370 AGL
20:59 You exceeded maximum bank angle
21:13 TOC Reached
22:23 Landing Lights ON at 4960 AGL
22:24Flaps 1 Selected at 3090ft and 217kts
22:24Flaps 2 Selected at 2960ft and 204kts
22:26Flaps 3 Selected at 2150ft and 154kts
22:27 Landing Gear Down @ 149 Knots and 1830 Feet
22:27Flaps 4 Selected at 1810ft and 149kts
22:27Flaps 5 Selected at 1640ft and 149kts
22:28Flaps 6 Selected at 1530ft and 147kts
22:29 You Landed @ 127 Knots and with -200 Vertical Speed
Arrival Weather
UUOO 291700Z 22002MPS 9000 NSC 26/08 Q1014 R30/090070 NOSIG RMK QFE747
22:30 Landing Lights OFF at 520 AGL
22:30 Taxi Lights ON at 520 AGL
22:30 Strobe Lights OFF at 520 AGL
22:31Flaps Retracted at 520ft and 9kts
22:35 Brakes are On
22:35 Taxi Lights OFF at 520 AGL
22:35 Engine 1 Stoped
22:35 Engine 2 Stoped
22:36 Beacon Lights OFF at 520 AGL
Pirep logged with S7 Tracking 1.0.0.14



Общая оценка полета : 100%




Route Map



 
 
   
 
Новости

03.09.2020 - Полеты в MFS 2020

Спешим сообщить вам, что теперь наш S7 Pad поддерживается для полетов в новом симуляторе MFS 2020. В разделе Загрузки вы найдете FSUIPC7.rar
Инструкция для запуска прилагается!

   
 
Авторизация






Регистрация

Восстановить пароль?

Мы в соц. сетях

      



   
 





   
 


   
 


Яндекс.Метрика

www.va-s7.ru 2011-2020
Все права защищены.



Минуточку внимания!
Сайт va-s7.ru не является коммерческим проектом. Мы не имеем отношения к торговым маркам "S7" и "Globus" и их представителям.
Эмблемы на сайте являются собственностью соответствующих компаний.

аэронавигационная метеорологическая и любая другая информация с данного ресурса ни в коем случае не должна использоваться для реальных полетов